Time;durP1;ratioP1;P1;durP2;ratioP2;P2;SDS_P1;SDS_P2;PMS_P1;PMS_P2;Temp;Humidity;BMP_temperature;BMP_pressure;BME280_temperature;BME280_humidity;BME280_pressure;Samples;Min_cycle;Max_cycle;Signal;HPM_P1;HPM_P2
2021/09/30 00:02:26;;;;;;;154.37;145.07;;;;;;;;;;5053739;28;20468;-77
2021/09/30 00:04:53;;;;;;;158.40;148.80;;;;;;;;;;5053018;28;20491;-80
2021/09/30 00:07:20;;;;;;;154.70;145.30;;;;;;;;;;5053293;28;20468;-73
2021/09/30 00:09:48;;;;;;;159.47;149.80;;;;;;;;;;5052867;28;20464;-78
2021/09/30 00:12:19;;;;;;;156.00;146.70;;;;;;;;;;5054301;28;20455;-67
2021/09/30 00:14:51;;;;;;;158.30;148.70;;;;;;;;;;5051898;28;20476;-68
2021/09/30 00:17:35;;;;;;;164.40;154.60;;;;;;;;;;5053768;28;20471;-72
2021/09/30 00:34:08;;;;;;;145.70;136.50;;;;;;;;;;5051041;28;20504;-73
2021/09/30 00:39:47;;;;;;;149.47;140.60;;;;;;;;;;5051685;28;20443;-74
2021/09/30 00:42:24;;;;;;;149.40;140.60;;;;;;;;;;5032663;28;20536;-68
2021/09/30 00:47:45;;;;;;;149.90;140.90;;;;;;;;;;5053541;28;20462;-69
2021/09/30 00:50:26;;;;;;;150.97;142.30;;;;;;;;;;5040706;28;20460;-80
2021/09/30 00:53:03;;;;;;;147.10;138.23;;;;;;;;;;5053632;28;20451;-75
2021/09/30 00:56:02;;;;;;;148.57;139.57;;;;;;;;;;5040223;28;20476;-78
2021/09/30 02:19:40;;;;;;;154.43;144.90;;;;;;;;;;4995633;28;20525;-70
2021/09/30 02:22:29;;;;;;;156.90;147.23;;;;;;;;;;4979793;28;20471;-68
2021/09/30 02:58:14;;;;;;;235.93;222.50;;;;;;;;;;5054170;28;20958;-66
2021/09/30 03:00:41;;;;;;;231.20;217.90;;;;;;;;;;5040283;28;20471;-66
2021/09/30 03:03:10;;;;;;;242.20;228.83;;;;;;;;;;5034205;28;20451;-68
2021/09/30 03:05:40;;;;;;;264.07;249.83;;;;;;;;;;5060242;28;20949;-67
2021/09/30 03:08:07;;;;;;;266.53;251.80;;;;;;;;;;5067406;28;20472;-67
2021/09/30 03:10:34;;;;;;;277.17;261.93;;;;;;;;;;5054180;28;20451;-68
2021/09/30 03:13:02;;;;;;;277.53;262.60;;;;;;;;;;5051332;28;20462;-68
2021/09/30 03:15:38;;;;;;;277.63;262.73;;;;;;;;;;5050808;28;20511;-69
2021/09/30 03:20:51;;;;;;;299.60;283.33;;;;;;;;;;5052106;28;20539;-68
2021/09/30 03:23:19;;;;;;;317.63;300.53;;;;;;;;;;5042180;28;20883;-67
2021/09/30 03:25:48;;;;;;;312.37;295.47;;;;;;;;;;5048309;28;20549;-69
2021/09/30 03:28:15;;;;;;;331.07;313.50;;;;;;;;;;5050680;28;20460;-66
2021/09/30 03:30:43;;;;;;;310.30;292.80;;;;;;;;;;5048905;28;20468;-68
2021/09/30 03:33:10;;;;;;;319.10;301.70;;;;;;;;;;5045208;28;20452;-66
2021/09/30 03:35:38;;;;;;;300.60;283.67;;;;;;;;;;5051988;28;20491;-67
2021/09/30 03:38:08;;;;;;;293.27;276.23;;;;;;;;;;5050083;28;20459;-68
2021/09/30 03:40:35;;;;;;;326.10;307.97;;;;;;;;;;5043248;28;20822;-69
2021/09/30 03:43:03;;;;;;;309.67;291.73;;;;;;;;;;5042896;28;20946;-66
2021/09/30 03:45:30;;;;;;;296.13;278.50;;;;;;;;;;5045762;28;20488;-66
2021/09/30 03:47:57;;;;;;;329.43;310.83;;;;;;;;;;5051570;28;20460;-67
2021/09/30 03:50:26;;;;;;;319.13;301.03;;;;;;;;;;5043610;28;20989;-66
2021/09/30 03:53:00;;;;;;;321.53;303.23;;;;;;;;;;5039464;28;20463;-67
2021/09/30 03:55:57;;;;;;;313.73;295.23;;;;;;;;;;5054264;28;20456;-68
2021/09/30 04:01:10;;;;;;;316.77;297.97;;;;;;;;;;5049498;28;20454;-66
2021/09/30 04:03:37;;;;;;;300.70;282.20;;;;;;;;;;5054334;28;21049;-65
2021/09/30 04:06:04;;;;;;;304.17;285.87;;;;;;;;;;5052266;28;20515;-66
2021/09/30 04:08:32;;;;;;;293.00;275.23;;;;;;;;;;5046240;28;20464;-72
2021/09/30 04:11:00;;;;;;;261.57;244.67;;;;;;;;;;5055022;28;20456;-72
2021/09/30 04:13:27;;;;;;;290.90;273.40;;;;;;;;;;5053367;28;21150;-70
2021/09/30 04:15:55;;;;;;;264.70;247.60;;;;;;;;;;5052402;28;20482;-72
2021/09/30 04:18:22;;;;;;;272.63;255.33;;;;;;;;;;5055632;28;20463;-70
2021/09/30 04:20:49;;;;;;;332.60;313.73;;;;;;;;;;5039798;28;20500;-78
2021/09/30 04:23:16;;;;;;;285.60;266.70;;;;;;;;;;5036347;28;20805;-74
2021/09/30 04:25:43;;;;;;;273.70;256.03;;;;;;;;;;5056276;28;20494;-74
2021/09/30 04:28:13;;;;;;;261.57;244.57;;;;;;;;;;5060927;28;20447;-71
2021/09/30 04:30:41;;;;;;;281.47;264.07;;;;;;;;;;5057744;28;20471;-73
2021/09/30 04:33:08;;;;;;;278.97;261.57;;;;;;;;;;5062263;28;21020;-73
2021/09/30 04:35:35;;;;;;;258.20;240.80;;;;;;;;;;5045995;28;20484;-73
2021/09/30 04:38:02;;;;;;;277.37;259.23;;;;;;;;;;5053341;28;20475;-73
2021/09/30 04:40:29;;;;;;;288.87;270.57;;;;;;;;;;5056447;28;20454;-75
2021/09/30 04:42:56;;;;;;;271.20;253.10;;;;;;;;;;5051556;28;20486;-70
2021/09/30 04:45:24;;;;;;;300.67;281.43;;;;;;;;;;5052797;28;20488;-77
2021/09/30 04:47:52;;;;;;;294.03;274.63;;;;;;;;;;5053256;28;20962;-72
2021/09/30 04:50:19;;;;;;;305.47;286.13;;;;;;;;;;5055553;28;20458;-73
2021/09/30 04:52:46;;;;;;;312.50;292.20;;;;;;;;;;5053785;28;20477;-68
2021/09/30 04:55:13;;;;;;;319.33;299.43;;;;;;;;;;5053583;28;20464;-69
2021/09/30 04:57:40;;;;;;;316.70;297.20;;;;;;;;;;5053096;28;20475;-67
2021/09/30 05:00:07;;;;;;;318.23;298.53;;;;;;;;;;5053948;28;20464;-70
2021/09/30 05:02:36;;;;;;;298.43;279.10;;;;;;;;;;5056293;28;20464;-73
2021/09/30 05:05:03;;;;;;;295.93;277.10;;;;;;;;;;5059038;28;20475;-74
2021/09/30 05:07:30;;;;;;;402.53;373.73;;;;;;;;;;5054799;28;20467;-82
2021/09/30 05:10:00;;;;;;;410.23;382.27;;;;;;;;;;5059797;28;20450;-80
2021/09/30 05:12:29;;;;;;;268.33;249.63;;;;;;;;;;5056327;28;20504;-73
2021/09/30 05:14:56;;;;;;;267.30;248.60;;;;;;;;;;5042820;28;20536;-70
2021/09/30 05:17:24;;;;;;;276.20;257.23;;;;;;;;;;5040312;28;20464;-77
2021/09/30 05:19:53;;;;;;;189.37;175.77;;;;;;;;;;5050327;28;20432;-66
2021/09/30 05:22:20;;;;;;;160.27;146.70;;;;;;;;;;5070172;28;20459;-67
2021/09/30 05:24:47;;;;;;;299.73;278.93;;;;;;;;;;5068095;28;20502;-69
2021/09/30 05:27:14;;;;;;;299.93;276.47;;;;;;;;;;5060502;28;20475;-69
2021/09/30 05:29:41;;;;;;;429.00;398.50;;;;;;;;;;5056309;28;20464;-70
2021/09/30 05:32:08;;;;;;;518.07;483.80;;;;;;;;;;5054093;28;20474;-69
2021/09/30 05:34:36;;;;;;;562.13;525.97;;;;;;;;;;5053181;28;20470;-70
2021/09/30 05:37:04;;;;;;;600.93;563.10;;;;;;;;;;5055167;28;20444;-69
2021/09/30 05:39:31;;;;;;;599.20;562.13;;;;;;;;;;5050303;28;20992;-70
2021/09/30 05:41:58;;;;;;;560.97;526.33;;;;;;;;;;5052644;28;20463;-69
2021/09/30 05:44:26;;;;;;;515.57;483.77;;;;;;;;;;5051511;28;20854;-71
2021/09/30 05:46:55;;;;;;;465.83;433.93;;;;;;;;;;5050983;28;20574;-69
2021/09/30 05:49:22;;;;;;;423.03;394.27;;;;;;;;;;5050977;28;20842;-69
2021/09/30 05:51:50;;;;;;;428.80;400.00;;;;;;;;;;5048945;28;20549;-69
2021/09/30 05:54:18;;;;;;;429.73;401.67;;;;;;;;;;5050435;28;20470;-69
2021/09/30 05:56:45;;;;;;;407.37;380.40;;;;;;;;;;5051364;28;20451;-69
2021/09/30 05:59:16;;;;;;;410.83;383.30;;;;;;;;;;5050966;28;20487;-69
2021/09/30 06:12:56;;;;;;;408.30;381.33;;;;;;;;;;5050601;28;20455;-64
2021/09/30 06:15:30;;;;;;;447.07;420.73;;;;;;;;;;5050834;28;20989;-67
2021/09/30 06:17:58;;;;;;;412.97;388.17;;;;;;;;;;5049000;28;20491;-68
2021/09/30 06:20:25;;;;;;;428.07;401.13;;;;;;;;;;5048443;28;20463;-66
2021/09/30 06:22:52;;;;;;;397.73;372.43;;;;;;;;;;5051207;28;20478;-66
2021/09/30 06:25:20;;;;;;;392.43;367.67;;;;;;;;;;5049848;28;20861;-69
2021/09/30 06:27:48;;;;;;;390.73;367.03;;;;;;;;;;5046567;28;20499;-70
2021/09/30 06:30:15;;;;;;;402.57;377.60;;;;;;;;;;5044402;28;20463;-70
2021/09/30 06:32:43;;;;;;;391.70;368.77;;;;;;;;;;5046908;28;20467;-67
2021/09/30 06:35:10;;;;;;;387.33;364.97;;;;;;;;;;5051742;28;20487;-67
2021/09/30 06:37:38;;;;;;;398.30;376.37;;;;;;;;;;5051592;28;20567;-70
2021/09/30 06:40:05;;;;;;;382.30;360.17;;;;;;;;;;5051408;28;20459;-67
2021/09/30 06:42:34;;;;;;;398.93;379.70;;;;;;;;;;5045841;28;20828;-68
2021/09/30 06:45:01;;;;;;;468.77;443.47;;;;;;;;;;5050815;28;20487;-66
2021/09/30 06:47:29;;;;;;;494.73;468.23;;;;;;;;;;5049209;28;20991;-66
2021/09/30 06:49:57;;;;;;;500.53;473.03;;;;;;;;;;5055076;28;20502;-65
2021/09/30 06:52:24;;;;;;;472.77;445.30;;;;;;;;;;5054079;28;20959;-67
2021/09/30 06:54:51;;;;;;;476.57;448.97;;;;;;;;;;5054277;28;20502;-65
2021/09/30 06:57:18;;;;;;;477.53;451.93;;;;;;;;;;5054971;28;20440;-65
2021/09/30 06:59:47;;;;;;;449.47;423.40;;;;;;;;;;5049379;28;20463;-65
2021/09/30 07:02:17;;;;;;;448.93;424.43;;;;;;;;;;5053878;28;20451;-66
2021/09/30 07:04:44;;;;;;;404.67;381.40;;;;;;;;;;5053678;28;20484;-65
2021/09/30 07:07:11;;;;;;;405.07;382.97;;;;;;;;;;5053783;28;20837;-66
2021/09/30 07:09:38;;;;;;;460.23;435.20;;;;;;;;;;5053291;28;20468;-67
2021/09/30 07:12:05;;;;;;;510.67;483.27;;;;;;;;;;5053236;28;20471;-67
2021/09/30 07:14:32;;;;;;;479.83;453.23;;;;;;;;;;5053274;28;20470;-66
2021/09/30 07:17:01;;;;;;;450.07;426.03;;;;;;;;;;5054051;28;20448;-66
2021/09/30 07:19:28;;;;;;;428.60;406.00;;;;;;;;;;5052566;28;20847;-65
2021/09/30 07:21:55;;;;;;;410.13;388.33;;;;;;;;;;5051355;28;20460;-66
2021/09/30 07:24:22;;;;;;;389.53;367.03;;;;;;;;;;5052967;28;20950;-67
2021/09/30 07:26:49;;;;;;;484.63;454.43;;;;;;;;;;5053284;28;20487;-66
2021/09/30 07:29:16;;;;;;;497.13;464.83;;;;;;;;;;5050932;28;20463;-66
2021/09/30 07:31:44;;;;;;;500.77;468.50;;;;;;;;;;5051872;28;20915;-67
2021/09/30 07:34:13;;;;;;;500.63;467.33;;;;;;;;;;5051904;28;20836;-67
2021/09/30 07:36:40;;;;;;;516.37;479.57;;;;;;;;;;5053105;28;20479;-66
2021/09/30 07:39:08;;;;;;;483.23;451.80;;;;;;;;;;5035823;28;20472;-66
2021/09/30 07:41:35;;;;;;;476.17;443.33;;;;;;;;;;5051484;28;20471;-65
2021/09/30 07:44:03;;;;;;;493.57;457.40;;;;;;;;;;5053397;28;20447;-66
2021/09/30 07:46:31;;;;;;;444.60;413.20;;;;;;;;;;5052033;28;20853;-66
2021/09/30 07:48:58;;;;;;;468.03;441.10;;;;;;;;;;5051947;28;21003;-66
2021/09/30 07:51:26;;;;;;;399.17;373.67;;;;;;;;;;5052744;28;20459;-66
2021/09/30 07:53:53;;;;;;;386.77;363.10;;;;;;;;;;5052157;28;20468;-66
2021/09/30 07:56:22;;;;;;;375.93;353.23;;;;;;;;;;5052545;28;20464;-66
2021/09/30 07:58:49;;;;;;;368.20;346.70;;;;;;;;;;5051944;28;20850;-67
2021/09/30 08:01:16;;;;;;;402.53;380.20;;;;;;;;;;5052917;28;20471;-67
2021/09/30 08:03:43;;;;;;;408.73;385.63;;;;;;;;;;5051433;28;20464;-66
2021/09/30 08:06:11;;;;;;;393.23;372.37;;;;;;;;;;5053258;28;20483;-66
2021/09/30 08:08:39;;;;;;;378.97;359.70;;;;;;;;;;5049988;28;20979;-66
2021/09/30 08:11:06;;;;;;;368.47;351.07;;;;;;;;;;5053239;28;20451;-66
2021/09/30 08:13:33;;;;;;;362.53;342.93;;;;;;;;;;5051923;28;20495;-66
2021/09/30 08:16:01;;;;;;;369.03;350.30;;;;;;;;;;5052473;28;20843;-65
2021/09/30 08:18:28;;;;;;;393.57;373.73;;;;;;;;;;5051215;28;20468;-66
2021/09/30 08:20:56;;;;;;;388.83;368.40;;;;;;;;;;5053009;28;20455;-66
2021/09/30 08:23:24;;;;;;;387.83;368.37;;;;;;;;;;5049546;28;20466;-66
2021/09/30 08:25:52;;;;;;;328.50;312.40;;;;;;;;;;5052550;28;20483;-66
2021/09/30 08:28:20;;;;;;;318.17;303.90;;;;;;;;;;5049922;28;20483;-66
2021/09/30 08:30:49;;;;;;;344.13;326.03;;;;;;;;;;5042033;28;20466;-66
2021/09/30 08:33:22;;;;;;;364.10;346.63;;;;;;;;;;5051918;28;20455;-66
2021/09/30 08:35:49;;;;;;;333.10;317.80;;;;;;;;;;5051397;28;20485;-66
2021/09/30 08:38:16;;;;;;;295.47;282.97;;;;;;;;;;5051624;28;20464;-66
2021/09/30 08:40:43;;;;;;;246.80;235.97;;;;;;;;;;5052456;28;20458;-67
2021/09/30 08:43:12;;;;;;;251.33;240.53;;;;;;;;;;5050952;28;20963;-66
2021/09/30 08:45:39;;;;;;;181.63;173.13;;;;;;;;;;5051009;28;20498;-66
2021/09/30 08:48:08;;;;;;;132.80;126.40;;;;;;;;;;5052797;28;20479;-66
2021/09/30 08:50:38;;;;;;;109.90;104.70;;;;;;;;;;5051023;28;20474;-67
2021/09/30 08:53:05;;;;;;;93.93;89.20;;;;;;;;;;5051857;28;20514;-67
2021/09/30 08:55:33;;;;;;;124.67;118.67;;;;;;;;;;5052432;28;20525;-67
2021/09/30 08:58:03;;;;;;;122.33;116.33;;;;;;;;;;5050955;28;20466;-66
2021/09/30 09:00:32;;;;;;;110.03;104.17;;;;;;;;;;5052683;28;20440;-67
2021/09/30 09:02:59;;;;;;;164.23;156.13;;;;;;;;;;5052486;28;20459;-68
2021/09/30 09:05:26;;;;;;;253.03;242.27;;;;;;;;;;5050931;28;21021;-66
2021/09/30 09:07:54;;;;;;;326.23;312.53;;;;;;;;;;5049917;28;20489;-66
2021/09/30 09:10:22;;;;;;;374.93;359.30;;;;;;;;;;5052200;28;20447;-66
2021/09/30 09:13:01;;;;;;;383.57;367.27;;;;;;;;;;5050394;28;20541;-66
2021/09/30 09:15:29;;;;;;;373.77;358.37;;;;;;;;;;5049433;28;20483;-65
2021/09/30 09:17:59;;;;;;;392.20;376.00;;;;;;;;;;5050191;28;21853;-66
2021/09/30 09:20:27;;;;;;;411.70;394.77;;;;;;;;;;5052260;28;20842;-67
2021/09/30 09:22:55;;;;;;;402.80;386.40;;;;;;;;;;5049098;28;20474;-66
2021/09/30 09:25:23;;;;;;;375.33;359.90;;;;;;;;;;5050368;28;20561;-66
2021/09/30 09:27:53;;;;;;;319.57;306.40;;;;;;;;;;5050911;28;20574;-66
2021/09/30 09:30:41;;;;;;;228.63;218.83;;;;;;;;;;5051165;28;20478;-67
2021/09/30 09:33:11;;;;;;;143.77;136.67;;;;;;;;;;5042685;28;20463;-65
2021/09/30 09:35:53;;;;;;;185.93;177.03;;;;;;;;;;5049108;28;20488;-66
2021/09/30 09:38:21;;;;;;;260.80;249.87;;;;;;;;;;5048959;28;20463;-66
2021/09/30 09:40:49;;;;;;;286.80;274.93;;;;;;;;;;5052178;28;20479;-66
2021/09/30 09:43:30;;;;;;;303.77;291.43;;;;;;;;;;5050012;28;20443;-66
2021/09/30 09:45:57;;;;;;;291.00;279.00;;;;;;;;;;5049907;28;20491;-65
2021/09/30 09:48:25;;;;;;;166.97;158.97;;;;;;;;;;5051362;28;20480;-66
2021/09/30 09:50:53;;;;;;;129.30;122.70;;;;;;;;;;5051482;28;20476;-66
2021/09/30 09:53:21;;;;;;;117.13;111.27;;;;;;;;;;5051759;28;20462;-66
2021/09/30 09:55:48;;;;;;;73.87;69.70;;;;;;;;;;5050978;28;20859;-66
2021/09/30 09:58:16;;;;;;;55.67;52.57;;;;;;;;;;5051400;28;20444;-66
2021/09/30 10:00:58;;;;;;;46.27;43.37;;;;;;;;;;5046067;28;20943;-69
2021/09/30 10:03:27;;;;;;;39.87;37.47;;;;;;;;;;5048300;28;20459;-68
2021/09/30 10:05:55;;;;;;;36.13;33.93;;;;;;;;;;5050465;28;21058;-69
2021/09/30 10:08:22;;;;;;;31.50;29.70;;;;;;;;;;5053100;28;20489;-69
2021/09/30 10:10:50;;;;;;;32.47;30.47;;;;;;;;;;5055641;28;20478;-69
2021/09/30 10:13:18;;;;;;;31.40;29.60;;;;;;;;;;5052076;28;20509;-69
2021/09/30 10:15:46;;;;;;;33.17;31.17;;;;;;;;;;5048645;28;20483;-68
2021/09/30 10:18:13;;;;;;;35.00;32.50;;;;;;;;;;5056394;28;20970;-69
2021/09/30 10:20:43;;;;;;;30.43;28.53;;;;;;;;;;5055858;28;20448;-68
2021/09/30 10:23:12;;;;;;;36.70;34.30;;;;;;;;;;5055594;28;20450;-69
2021/09/30 10:25:39;;;;;;;39.10;36.70;;;;;;;;;;5035791;28;20477;-69
2021/09/30 10:28:11;;;;;;;38.57;36.07;;;;;;;;;;5041870;28;20483;-68
2021/09/30 10:30:40;;;;;;;34.83;32.60;;;;;;;;;;5055989;28;20505;-69
2021/09/30 10:33:08;;;;;;;40.00;37.40;;;;;;;;;;5050376;28;20463;-69
2021/09/30 10:35:36;;;;;;;41.67;39.10;;;;;;;;;;5052945;28;20993;-69
2021/09/30 10:38:24;;;;;;;38.63;36.23;;;;;;;;;;5054652;28;20841;-69
2021/09/30 10:41:05;;;;;;;39.87;37.67;;;;;;;;;;5055564;28;20459;-69
2021/09/30 10:43:33;;;;;;;36.40;34.17;;;;;;;;;;5045297;28;20514;-69
2021/09/30 10:46:01;;;;;;;36.27;34.07;;;;;;;;;;5050031;28;20463;-69
2021/09/30 10:48:41;;;;;;;36.77;34.37;;;;;;;;;;5054279;28;20476;-68
2021/09/30 10:51:10;;;;;;;33.90;31.67;;;;;;;;;;5053947;28;20845;-69
2021/09/30 10:53:55;;;;;;;34.70;32.40;;;;;;;;;;5054934;28;20447;-68
2021/09/30 10:56:40;;;;;;;33.10;30.90;;;;;;;;;;5050644;28;20468;-68
2021/09/30 10:59:23;;;;;;;30.20;28.20;;;;;;;;;;5052753;28;20797;-68
2021/09/30 11:02:02;;;;;;;28.60;26.70;;;;;;;;;;5024393;28;21120;-68
2021/09/30 11:04:29;;;;;;;28.00;26.37;;;;;;;;;;5034897;28;20440;-69
2021/09/30 11:07:15;;;;;;;28.43;26.63;;;;;;;;;;5048967;28;20460;-69
2021/09/30 11:09:42;;;;;;;28.07;26.27;;;;;;;;;;5054018;28;20951;-69
2021/09/30 11:12:11;;;;;;;29.53;27.63;;;;;;;;;;5054625;28;20455;-68
2021/09/30 11:14:52;;;;;;;28.27;26.57;;;;;;;;;;5054233;28;20783;-68
2021/09/30 11:17:34;;;;;;;29.67;27.77;;;;;;;;;;5056008;28;20436;-68
2021/09/30 11:20:16;;;;;;;28.63;26.60;;;;;;;;;;5053304;28;20452;-68
2021/09/30 11:22:44;;;;;;;29.20;27.50;;;;;;;;;;5052556;28;20451;-69
2021/09/30 11:25:11;;;;;;;28.53;26.70;;;;;;;;;;5052950;28;20479;-66
2021/09/30 11:27:39;;;;;;;32.63;30.63;;;;;;;;;;5049577;28;20487;-69
2021/09/30 11:30:17;;;;;;;39.30;36.67;;;;;;;;;;5053961;28;20452;-67
2021/09/30 11:32:45;;;;;;;29.40;27.60;;;;;;;;;;5053976;28;20451;-67
2021/09/30 11:35:12;;;;;;;30.60;28.70;;;;;;;;;;5054602;28;20467;-65
2021/09/30 11:37:42;;;;;;;26.60;24.90;;;;;;;;;;5053663;28;20447;-66
2021/09/30 11:40:12;;;;;;;25.67;23.83;;;;;;;;;;5053214;28;20510;-67
2021/09/30 11:42:42;;;;;;;26.47;24.77;;;;;;;;;;5051063;28;20858;-67
2021/09/30 11:45:10;;;;;;;28.13;26.23;;;;;;;;;;5041978;28;20476;-68
2021/09/30 11:47:38;;;;;;;29.70;27.70;;;;;;;;;;5042151;28;20472;-67
2021/09/30 11:50:07;;;;;;;33.07;30.87;;;;;;;;;;5055547;28;20456;-65
2021/09/30 11:52:34;;;;;;;28.37;26.73;;;;;;;;;;5053363;28;20456;-66
2021/09/30 11:55:10;;;;;;;25.93;24.30;;;;;;;;;;5049041;28;20465;-65
2021/09/30 11:57:37;;;;;;;24.27;22.70;;;;;;;;;;5038559;28;20966;-65
2021/09/30 12:00:13;;;;;;;23.97;22.47;;;;;;;;;;5053500;28;20452;-65
2021/09/30 12:02:53;;;;;;;25.17;23.47;;;;;;;;;;5054248;28;20451;-66
2021/09/30 12:05:20;;;;;;;24.00;22.53;;;;;;;;;;5047119;28;20473;-65
2021/09/30 12:07:47;;;;;;;24.10;22.50;;;;;;;;;;5034226;28;20484;-66
2021/09/30 12:10:15;;;;;;;23.80;22.47;;;;;;;;;;5040503;28;20466;-65
2021/09/30 12:12:45;;;;;;;23.40;22.10;;;;;;;;;;5051869;28;20463;-65
2021/09/30 12:15:14;;;;;;;23.67;22.07;;;;;;;;;;5048235;28;20926;-65
2021/09/30 12:17:42;;;;;;;23.70;22.07;;;;;;;;;;5051818;28;20458;-65
2021/09/30 12:20:10;;;;;;;24.50;22.90;;;;;;;;;;5052242;28;20490;-65
2021/09/30 12:22:39;;;;;;;23.87;22.47;;;;;;;;;;5049459;28;20448;-65
2021/09/30 12:25:07;;;;;;;22.97;21.67;;;;;;;;;;5051488;28;20479;-65
2021/09/30 12:27:35;;;;;;;23.40;21.90;;;;;;;;;;5051156;28;20848;-65
2021/09/30 12:30:05;;;;;;;24.77;23.20;;;;;;;;;;5042469;28;20449;-65
2021/09/30 12:32:35;;;;;;;23.00;21.60;;;;;;;;;;5045437;28;20459;-65
2021/09/30 12:35:03;;;;;;;23.43;22.00;;;;;;;;;;5052451;28;20470;-67
2021/09/30 12:37:31;;;;;;;23.13;21.53;;;;;;;;;;5052603;28;20455;-66
2021/09/30 12:40:03;;;;;;;23.70;22.13;;;;;;;;;;5049737;28;20441;-67
2021/09/30 12:42:31;;;;;;;23.57;21.70;;;;;;;;;;5043033;28;20460;-68
2021/09/30 12:44:58;;;;;;;21.43;20.17;;;;;;;;;;5050586;28;20479;-67
2021/09/30 12:47:29;;;;;;;21.67;20.37;;;;;;;;;;5052218;28;20448;-68
2021/09/30 12:50:05;;;;;;;23.20;21.80;;;;;;;;;;5051893;28;20456;-68
2021/09/30 12:52:32;;;;;;;22.97;21.30;;;;;;;;;;5052978;28;20992;-68
2021/09/30 12:54:59;;;;;;;27.17;25.40;;;;;;;;;;5051652;28;20478;-68
2021/09/30 12:57:32;;;;;;;27.17;25.17;;;;;;;;;;5045591;28;20452;-67
2021/09/30 13:00:08;;;;;;;27.10;25.50;;;;;;;;;;5035838;28;20498;-68
2021/09/30 13:02:35;;;;;;;26.73;25.23;;;;;;;;;;5052680;28;20443;-63
2021/09/30 13:05:04;;;;;;;25.07;23.47;;;;;;;;;;5051562;28;21025;-64
2021/09/30 13:07:44;;;;;;;26.67;24.77;;;;;;;;;;5052431;28;20447;-64
2021/09/30 13:10:11;;;;;;;25.83;24.33;;;;;;;;;;5050366;28;20514;-64
2021/09/30 13:12:39;;;;;;;25.70;24.10;;;;;;;;;;5049746;28;20969;-64
2021/09/30 13:15:06;;;;;;;25.90;24.40;;;;;;;;;;5052445;28;20468;-64
2021/09/30 13:17:34;;;;;;;24.97;23.50;;;;;;;;;;5052229;28;20947;-65
2021/09/30 13:20:02;;;;;;;25.67;24.17;;;;;;;;;;5053505;28;20829;-64
2021/09/30 13:22:33;;;;;;;26.53;24.63;;;;;;;;;;5053032;28;20935;-64
2021/09/30 13:25:01;;;;;;;26.90;25.40;;;;;;;;;;5050308;28;20877;-64
2021/09/30 13:27:29;;;;;;;26.37;24.87;;;;;;;;;;5052521;28;20449;-64
2021/09/30 13:29:57;;;;;;;26.97;25.47;;;;;;;;;;5052091;28;20464;-64
2021/09/30 13:32:26;;;;;;;26.20;24.50;;;;;;;;;;5051697;28;20444;-64
2021/09/30 13:34:54;;;;;;;26.03;24.30;;;;;;;;;;5051727;28;21010;-63
2021/09/30 13:37:21;;;;;;;25.33;23.83;;;;;;;;;;5051701;28;20455;-64
2021/09/30 13:39:54;;;;;;;25.60;24.20;;;;;;;;;;5049851;28;20433;-64
2021/09/30 13:42:21;;;;;;;26.17;24.70;;;;;;;;;;5032094;28;20476;-63
2021/09/30 13:44:49;;;;;;;26.53;24.93;;;;;;;;;;5038930;28;20841;-64
2021/09/30 13:47:16;;;;;;;25.70;24.10;;;;;;;;;;5035590;28;20455;-64
2021/09/30 13:49:43;;;;;;;27.20;25.60;;;;;;;;;;5035861;28;20840;-64
2021/09/30 13:52:10;;;;;;;26.13;24.47;;;;;;;;;;5036134;28;20456;-64
2021/09/30 13:54:38;;;;;;;27.03;25.13;;;;;;;;;;5035651;28;20445;-64
2021/09/30 13:57:07;;;;;;;27.20;25.53;;;;;;;;;;5043715;28;20971;-64
2021/09/30 13:59:34;;;;;;;26.20;24.60;;;;;;;;;;5055934;28;20440;-64
2021/09/30 14:02:01;;;;;;;25.83;24.43;;;;;;;;;;5042802;28;20452;-64
2021/09/30 14:04:28;;;;;;;25.90;24.10;;;;;;;;;;5040713;28;20448;-63
2021/09/30 14:06:56;;;;;;;25.70;24.00;;;;;;;;;;5049747;28;20447;-64
2021/09/30 14:09:23;;;;;;;26.57;24.97;;;;;;;;;;5037795;28;20484;-64
2021/09/30 14:11:50;;;;;;;25.50;24.07;;;;;;;;;;5037137;28;20828;-64
2021/09/30 14:14:19;;;;;;;27.13;25.33;;;;;;;;;;5035965;28;20445;-64
2021/09/30 14:16:49;;;;;;;25.60;24.10;;;;;;;;;;5035336;28;20931;-63
2021/09/30 14:19:16;;;;;;;26.63;25.13;;;;;;;;;;5053852;28;20451;-64
2021/09/30 14:21:43;;;;;;;26.50;25.00;;;;;;;;;;5055726;28;20817;-64
2021/09/30 14:24:10;;;;;;;25.97;24.30;;;;;;;;;;5055120;28;20625;-64
2021/09/30 14:26:37;;;;;;;26.27;24.67;;;;;;;;;;5055432;28;20480;-64
2021/09/30 14:29:05;;;;;;;25.77;24.27;;;;;;;;;;5042524;28;20480;-64
2021/09/30 14:31:33;;;;;;;26.90;25.30;;;;;;;;;;5055019;28;20465;-64
2021/09/30 14:34:00;;;;;;;26.40;24.90;;;;;;;;;;5052291;28;20444;-64
2021/09/30 14:36:27;;;;;;;27.50;25.87;;;;;;;;;;5052082;28;20471;-64
2021/09/30 14:38:55;;;;;;;24.73;23.23;;;;;;;;;;5038617;28;20452;-64
2021/09/30 14:41:22;;;;;;;26.90;25.10;;;;;;;;;;5035831;28;20518;-64
2021/09/30 14:43:49;;;;;;;22.77;21.47;;;;;;;;;;5034632;28;20445;-64
2021/09/30 14:46:17;;;;;;;25.87;24.00;;;;;;;;;;5035677;28;20480;-64
2021/09/30 14:48:46;;;;;;;25.10;23.70;;;;;;;;;;5035091;28;20491;-64
2021/09/30 14:51:14;;;;;;;26.60;25.03;;;;;;;;;;5035799;28;20457;-64
2021/09/30 14:53:41;;;;;;;25.27;23.67;;;;;;;;;;5035969;28;20453;-64
2021/09/30 14:56:08;;;;;;;26.07;24.30;;;;;;;;;;5053058;28;20475;-64
2021/09/30 14:58:37;;;;;;;24.07;22.57;;;;;;;;;;5054048;28;20444;-64
2021/09/30 15:01:04;;;;;;;24.33;22.73;;;;;;;;;;5060414;28;20534;-63
2021/09/30 15:03:32;;;;;;;23.77;22.27;;;;;;;;;;5070738;28;20450;-63
2021/09/30 15:06:02;;;;;;;24.70;22.90;;;;;;;;;;5050917;28;21013;-63
2021/09/30 15:08:29;;;;;;;27.57;25.83;;;;;;;;;;5054887;28;20484;-64
2021/09/30 15:10:56;;;;;;;26.20;24.60;;;;;;;;;;5054933;28;20458;-64
2021/09/30 15:13:23;;;;;;;24.23;22.63;;;;;;;;;;5043796;28;20463;-64
2021/09/30 15:15:50;;;;;;;23.63;21.73;;;;;;;;;;5039995;28;20457;-64
2021/09/30 15:18:37;;;;;;;23.57;22.00;;;;;;;;;;5045893;28;20456;-63
2021/09/30 15:21:24;;;;;;;23.77;22.27;;;;;;;;;;5049503;28;20437;-64
2021/09/30 15:23:54;;;;;;;23.90;22.40;;;;;;;;;;5049230;28;20453;-64
2021/09/30 15:26:21;;;;;;;23.80;22.30;;;;;;;;;;5064338;28;21131;-65
2021/09/30 15:28:49;;;;;;;23.27;21.97;;;;;;;;;;5066542;28;20487;-64
2021/09/30 15:31:17;;;;;;;23.70;22.30;;;;;;;;;;5058940;28;20970;-64
2021/09/30 15:33:45;;;;;;;23.80;22.30;;;;;;;;;;5053878;28;20458;-64
2021/09/30 15:36:13;;;;;;;22.87;21.33;;;;;;;;;;5051800;28;20476;-64
2021/09/30 15:38:41;;;;;;;23.37;22.00;;;;;;;;;;5053155;28;20814;-64
2021/09/30 15:41:08;;;;;;;24.53;22.93;;;;;;;;;;5054055;28;20452;-64
2021/09/30 15:43:35;;;;;;;24.67;23.17;;;;;;;;;;5034255;28;20457;-65
2021/09/30 15:46:02;;;;;;;23.90;22.40;;;;;;;;;;5034080;28;20473;-65
2021/09/30 15:48:30;;;;;;;25.03;23.70;;;;;;;;;;5035400;28;20453;-64
2021/09/30 15:50:58;;;;;;;24.37;22.87;;;;;;;;;;5046257;28;20431;-65
2021/09/30 15:53:26;;;;;;;24.13;22.70;;;;;;;;;;5047908;28;20471;-63
2021/09/30 15:55:53;;;;;;;25.50;23.90;;;;;;;;;;5051855;28;20471;-64
2021/09/30 15:58:21;;;;;;;25.03;23.63;;;;;;;;;;5047683;28;20828;-64
2021/09/30 16:00:48;;;;;;;25.40;23.90;;;;;;;;;;5054349;28;20943;-64
2021/09/30 16:03:15;;;;;;;25.47;23.90;;;;;;;;;;5066961;28;20524;-64
2021/09/30 16:05:42;;;;;;;26.10;24.70;;;;;;;;;;5057510;28;20475;-64
2021/09/30 16:08:09;;;;;;;26.57;24.93;;;;;;;;;;5045332;28;20932;-64
2021/09/30 16:10:38;;;;;;;26.80;25.17;;;;;;;;;;5045513;28;20480;-64
2021/09/30 16:13:05;;;;;;;27.07;25.50;;;;;;;;;;5043955;28;20448;-63
2021/09/30 16:15:32;;;;;;;26.03;24.40;;;;;;;;;;5052427;28;21002;-64
2021/09/30 16:17:59;;;;;;;25.83;24.37;;;;;;;;;;5053426;28;20545;-64
2021/09/30 16:20:27;;;;;;;25.87;24.30;;;;;;;;;;5053125;28;20444;-64
2021/09/30 16:22:54;;;;;;;25.43;23.73;;;;;;;;;;5054383;28;20447;-64
2021/09/30 16:25:23;;;;;;;26.10;24.60;;;;;;;;;;5054287;28;20488;-63
2021/09/30 16:27:51;;;;;;;27.40;25.60;;;;;;;;;;5049359;28;20464;-64
2021/09/30 16:30:18;;;;;;;26.77;24.97;;;;;;;;;;5040237;28;20864;-64
2021/09/30 16:32:46;;;;;;;27.80;25.90;;;;;;;;;;5052367;28;20458;-64
2021/09/30 16:35:13;;;;;;;29.20;27.43;;;;;;;;;;5052575;28;20471;-64
2021/09/30 16:37:40;;;;;;;29.20;27.50;;;;;;;;;;5049572;28;20816;-63
2021/09/30 16:40:09;;;;;;;30.87;28.97;;;;;;;;;;5032858;28;20444;-64
2021/09/30 16:42:36;;;;;;;30.23;28.10;;;;;;;;;;5033006;28;20448;-64
2021/09/30 16:45:06;;;;;;;29.50;27.80;;;;;;;;;;5044676;28;20971;-64
2021/09/30 16:47:34;;;;;;;29.80;27.73;;;;;;;;;;5055391;28;20947;-64